| time (UTC) | temp F | wind direction | speed MPH | gust MPH | rain 1hr in | rain 24hr in | rain mn in | humidity % | barometer mb |
| 20260510225038 | 81 | 295 | 0.0 | 1.0 | 0.00 | 0.00 | 0.00 | 31 | 1015.5 |
| 20260510224534 | 81 | 296 | 0.0 | 1.0 | 0.00 | 0.00 | 0.00 | 30 | 1015.4 |
| 20260510224031 | 81 | 317 | 1.0 | 3.0 | 0.00 | 0.00 | 0.00 | 30 | 1015.5 |
| 20260510223529 | 81 | 327 | 0.0 | 2.0 | 0.00 | 0.00 | 0.00 | 29 | 1015.4 |
| 20260510223026 | 81 | 284 | 0.0 | 1.0 | 0.00 | 0.00 | 0.00 | 30 | 1015.3 |
| 20260510222524 | 82 | 316 | 0.0 | 1.0 | 0.00 | 0.00 | 0.00 | 29 | 1015.3 |
| 20260510222020 | 82 | 280 | 0.0 | 2.0 | 0.00 | 0.00 | 0.00 | 29 | 1015.3 |
| 20260510221515 | 82 | 322 | 0.0 | 2.0 | 0.00 | 0.00 | 0.00 | 29 | 1015.3 |
| 20260510221011 | 82 | 289 | 3.0 | 3.0 | 0.00 | 0.00 | 0.00 | 28 | 1015.2 |
| 20260510220508 | 81 | 1 | 2.0 | 2.0 | 0.00 | 0.00 | 0.00 | 29 | 1015.3 |
| 20260510220005 | 81 | 164 | 1.0 | 2.0 | 0.00 | 0.00 | 0.00 | 31 | 1015.2 |
| 20260510215502 | 81 | 77 | 0.0 | 1.0 | 0.00 | 0.00 | 0.00 | 27 | 1015.2 |
| 20260510214959 | 81 | 164 | 0.0 | 1.0 | 0.00 | 0.00 | 0.00 | 30 | 1015.2 |
| 20260510214456 | 81 | 321 | 1.0 | 2.0 | 0.00 | 0.00 | 0.00 | 30 | 1015.3 |
| 20260510213953 | 81 | 29 | 1.0 | 1.0 | 0.00 | 0.00 | 0.00 | 30 | 1015.3 |
| 20260510213450 | 82 | 41 | 0.0 | 1.0 | 0.00 | 0.00 | 0.00 | 28 | 1015.1 |
| 20260510212946 | 81 | 27 | 1.0 | 1.0 | 0.00 | 0.00 | 0.00 | 29 | 1015.3 |
| 20260510212443 | 81 | 308 | 1.0 | 1.0 | 0.00 | 0.00 | 0.00 | 29 | 1015.2 |
| 20260510211939 | 81 | 275 | 0.0 | 1.0 | 0.00 | 0.00 | 0.00 | 30 | 1015.1 |
| 20260510211438 | 81 | 20 | 1.0 | 3.0 | 0.00 | 0.00 | 0.00 | 30 | 1015.1 |
| 20260510210937 | 81 | 90 | 1.0 | 1.0 | 0.00 | 0.00 | 0.00 | 28 | 1015.0 |
| 20260510210433 | 81 | 282 | 0.0 | 3.0 | 0.00 | 0.00 | 0.00 | 30 | 1015.0 |
| 20260510205932 | 81 | 284 | 1.0 | 2.0 | 0.00 | 0.00 | 0.00 | 30 | 1015.1 |
| 20260510205427 | 81 | 256 | 0.0 | 3.0 | 0.00 | 0.00 | 0.00 | 29 | 1015.0 |
| 20260510204923 | 81 | 97 | 0.0 | 1.0 | 0.00 | 0.00 | 0.00 | 29 | 1015.2 |
| 20260510204420 | 81 | 42 | 0.0 | 3.0 | 0.00 | 0.00 | 0.00 | 26 | 1015.3 |
| 20260510203916 | 81 | 255 | 2.0 | 4.0 | 0.00 | 0.00 | 0.00 | 28 | 1015.3 |
| 20260510203414 | 81 | 261 | 0.0 | 3.0 | 0.00 | 0.00 | 0.00 | 31 | 1015.4 |
| 20260510202914 | 82 | 342 | 1.0 | 2.0 | 0.00 | 0.00 | 0.00 | 30 | 1015.3 |
| 20260510202410 | 82 | 284 | 0.0 | 1.0 | 0.00 | 0.00 | 0.00 | 29 | 1015.3 |
| 20260510201907 | 82 | 19 | 0.0 | 2.0 | 0.00 | 0.00 | 0.00 | 26 | 1015.2 |
| 20260510201404 | 82 | 262 | 1.0 | 2.0 | 0.00 | 0.00 | 0.00 | 26 | 1015.1 |
| 20260510200901 | 82 | 177 | 0.0 | 1.0 | 0.00 | 0.00 | 0.00 | 29 | 1015.4 |
| 20260510200400 | 82 | 288 | 3.0 | 6.0 | 0.00 | 0.00 | 0.00 | 27 | 1015.4 |
| 20260510195854 | 82 | 272 | 1.0 | 2.0 | 0.00 | 0.00 | 0.00 | 28 | 1015.4 |
| 20260510195351 | 82 | 314 | 1.0 | 1.0 | 0.00 | 0.00 | 0.00 | 28 | 1015.5 |
| 20260510194846 | 82 | 303 | 2.0 | 4.0 | 0.00 | 0.00 | 0.00 | 28 | 1015.5 |
| 20260510194343 | 82 | 10 | 4.0 | 4.0 | 0.00 | 0.00 | 0.00 | 27 | 1015.4 |
| 20260510193838 | 82 | 113 | 1.0 | 1.0 | 0.00 | 0.00 | 0.00 | 29 | 1015.6 |
| 20260510193334 | 82 | 104 | 1.0 | 2.0 | 0.00 | 0.00 | 0.00 | 26 | 1015.7 |
| 20260510192830 | 82 | 287 | 3.0 | 4.0 | 0.00 | 0.00 | 0.00 | 27 | 1015.6 |
| 20260510192325 | 84 | 2 | 0.0 | 2.0 | 0.00 | 0.00 | 0.00 | 26 | 1015.5 |
| 20260510191821 | 83 | 102 | 0.0 | 1.0 | 0.00 | 0.00 | 0.00 | 28 | 1015.5 |
| 20260510191317 | 83 | 129 | 1.0 | 3.0 | 0.00 | 0.00 | 0.00 | 27 | 1015.7 |
| 20260510190816 | 83 | 279 | 1.0 | 1.0 | 0.00 | 0.00 | 0.00 | 26 | 1015.6 |
| 20260510190313 | 84 | 305 | 2.0 | 6.0 | 0.00 | 0.00 | 0.00 | 24 | 1015.8 |
| 20260510185809 | 84 | 270 | 0.0 | 2.0 | 0.00 | 0.00 | 0.00 | 26 | 1015.8 |
| 20260510185307 | 84 | 300 | 0.0 | 2.0 | 0.00 | 0.00 | 0.00 | 27 | 1015.8 |
| 20260510184804 | 84 | 302 | 0.0 | 1.0 | 0.00 | 0.00 | 0.00 | 25 | 1015.7 |
| 20260510184301 | 83 | 337 | 1.0 | 1.0 | 0.00 | 0.00 | 0.00 | 25 | 1015.6 |
| 20260510183801 | 83 | 37 | 1.0 | 1.0 | 0.00 | 0.00 | 0.00 | 24 | 1016.0 |
| 20260510183256 | 84 | 307 | 0.0 | 2.0 | 0.00 | 0.00 | 0.00 | 26 | 1015.9 |
| 20260510182752 | 84 | 189 | 0.0 | 1.0 | 0.00 | 0.00 | 0.00 | 28 | 1015.9 |
| 20260510182248 | 84 | 192 | 1.0 | 2.0 | 0.00 | 0.00 | 0.00 | 26 | 1015.8 |
| 20260510181745 | 84 | 356 | 1.0 | 3.0 | 0.00 | 0.00 | 0.00 | 24 | 1016.1 |
| 20260510181242 | 83 | 166 | 1.0 | 2.0 | 0.00 | 0.00 | 0.00 | 26 | 1016.0 |
| 20260510180738 | 82 | 342 | 2.0 | 3.0 | 0.00 | 0.00 | 0.00 | 26 | 1016.4 |
| 20260510180236 | 83 | 327 | 1.0 | 2.0 | 0.00 | 0.00 | 0.00 | 27 | 1016.0 |
| 20260510175732 | 83 | 277 | 1.0 | 2.0 | 0.00 | 0.00 | 0.00 | 29 | 1015.9 |
| 20260510175228 | 82 | 319 | 2.0 | 4.0 | 0.00 | 0.00 | 0.00 | 26 | 1016.1 |
| 20260510174725 | 82 | 2 | 1.0 | 4.0 | 0.00 | 0.00 | 0.00 | 27 | 1016.4 |
| 20260510174223 | 83 | 283 | 2.0 | 2.0 | 0.00 | 0.00 | 0.00 | 27 | 1016.2 |
| 20260510173719 | 84 | 339 | 1.0 | 2.0 | 0.00 | 0.00 | 0.00 | 28 | 1016.2 |
| 20260510173214 | 84 | 279 | 0.0 | 2.0 | 0.00 | 0.00 | 0.00 | 29 | 1016.4 |
| 20260510172710 | 84 | 123 | 1.0 | 2.0 | 0.00 | 0.00 | 0.00 | 34 | 1016.4 |
| 20260510172206 | 84 | 168 | 1.0 | 1.0 | 0.00 | 0.00 | 0.00 | 26 | 1016.4 |
| 20260510171703 | 82 | 140 | 0.0 | 2.0 | 0.00 | 0.00 | 0.00 | 27 | 1016.7 |
| 20260510171201 | 83 | 278 | 1.0 | 2.0 | 0.00 | 0.00 | 0.00 | 29 | 1016.8 |
| 20260510170657 | 82 | 62 | 0.0 | 1.0 | 0.00 | 0.00 | 0.00 | 27 | 1016.7 |
| 20260510170153 | 83 | 256 | 0.0 | 2.0 | 0.00 | 0.00 | 0.00 | 29 | 1016.8 |
| 20260510165649 | 83 | 331 | 1.0 | 2.0 | 0.00 | 0.00 | 0.00 | 27 | 1016.7 |
| 20260510165140 | 83 | 298 | 0.0 | 2.0 | 0.00 | 0.00 | 0.00 | 31 | 1016.8 |
| 20260510164638 | 82 | 0 | 1.0 | 1.0 | 0.00 | 0.00 | 0.00 | 30 | 1016.8 |
| 20260510164135 | 82 | 194 | 1.0 | 2.0 | 0.00 | 0.00 | 0.00 | 29 | 1016.7 |
| 20260510163630 | 81 | 324 | 1.0 | 2.0 | 0.00 | 0.00 | 0.00 | 31 | 1016.9 |
| 20260510163126 | 80 | 249 | 0.0 | 1.0 | 0.00 | 0.00 | 0.00 | 33 | 1016.6 |
| 20260510162626 | 81 | 285 | 3.0 | 4.0 | 0.00 | 0.00 | 0.00 | 29 | 1016.9 |
| 20260510162123 | 81 | 296 | 3.0 | 4.0 | 0.00 | 0.00 | 0.00 | 31 | 1016.7 |
| 20260510161618 | 82 | 315 | 2.0 | 3.0 | 0.00 | 0.00 | 0.00 | 29 | 1016.7 |
| 20260510161115 | 82 | 46 | 0.0 | 2.0 | 0.00 | 0.00 | 0.00 | 30 | 1016.7 |
| 20260510160613 | 82 | 159 | 0.0 | 1.0 | 0.00 | 0.00 | 0.00 | 33 | 1016.9 |
| 20260510160112 | 82 | 30 | 1.0 | 2.0 | 0.00 | 0.00 | 0.00 | 29 | 1016.9 |
| 20260510155609 | 81 | 165 | 1.0 | 2.0 | 0.00 | 0.00 | 0.00 | 31 | 1016.9 |
| 20260510155105 | 82 | 341 | 2.0 | 4.0 | 0.00 | 0.00 | 0.00 | 32 | 1016.9 |
| 20260510154601 | 82 | 139 | 0.0 | 3.0 | 0.00 | 0.00 | 0.00 | 31 | 1016.9 |
| 20260510154056 | 80 | 84 | 0.0 | 2.0 | 0.00 | 0.00 | 0.00 | 32 | 1016.6 |
| 20260510153551 | 79 | 74 | 1.0 | 2.0 | 0.00 | 0.00 | 0.00 | 33 | 1016.7 |
| 20260510153048 | 80 | 289 | 2.0 | 3.0 | 0.00 | 0.00 | 0.00 | 37 | 1016.9 |
| 20260510152545 | 80 | 17 | 0.0 | 2.0 | 0.00 | 0.00 | 0.00 | 38 | 1016.9 |
| 20260510152041 | 80 | 103 | 0.0 | 1.0 | 0.00 | 0.00 | 0.00 | 40 | 1017.0 |
| 20260510151538 | 79 | 85 | 1.0 | 2.0 | 0.00 | 0.00 | 0.00 | 38 | 1016.8 |
| 20260510151036 | 79 | 35 | 1.0 | 2.0 | 0.00 | 0.00 | 0.00 | 39 | 1016.9 |
| 20260510150530 | 80 | 262 | 1.0 | 2.0 | 0.00 | 0.00 | 0.00 | 40 | 1016.7 |
| 20260510150027 | 79 | 58 | 2.0 | 3.0 | 0.00 | 0.00 | 0.00 | 37 | 1017.0 |
| 20260510145524 | 78 | 51 | 0.0 | 1.0 | 0.00 | 0.00 | 0.00 | 41 | 1016.9 |
| 20260510145020 | 77 | 43 | 1.0 | 2.0 | 0.00 | 0.00 | 0.00 | 42 | 1017.2 |
| 20260510144517 | 77 | 343 | 1.0 | 6.0 | 0.00 | 0.00 | 0.00 | 44 | 1017.0 |
| 20260510144013 | 78 | 5 | 1.0 | 3.0 | 0.00 | 0.00 | 0.00 | 43 | 1016.9 |
| 20260510143508 | 78 | 353 | 0.0 | 2.0 | 0.00 | 0.00 | 0.00 | 43 | 1016.9 |
| 20260510143005 | 78 | 351 | 1.0 | 2.0 | 0.00 | 0.00 | 0.00 | 45 | 1016.8 |
| 20260510142502 | 78 | 58 | 1.0 | 3.0 | 0.00 | 0.00 | 0.00 | 46 | 1016.9 |
| 20260510141958 | 77 | 335 | 2.0 | 2.0 | 0.00 | 0.00 | 0.00 | 45 | 1016.7 |
| 20260510141455 | 77 | 37 | 1.0 | 3.0 | 0.00 | 0.00 | 0.00 | 47 | 1016.9 |
| 20260510140952 | 77 | 61 | 1.0 | 2.0 | 0.00 | 0.00 | 0.00 | 49 | 1016.7 |
| 20260510140448 | 76 | 30 | 1.0 | 1.0 | 0.00 | 0.00 | 0.00 | 49 | 1016.9 |
| 20260510135948 | 76 | 269 | 0.0 | 2.0 | 0.00 | 0.00 | 0.00 | 48 | 1016.7 |
| 20260510135443 | 76 | 13 | 0.0 | 1.0 | 0.00 | 0.00 | 0.00 | 52 | 1016.9 |
| 20260510134941 | 76 | 85 | 0.0 | 1.0 | 0.00 | 0.00 | 0.00 | 51 | 1016.8 |
| 20260510134437 | 75 | 56 | 0.0 | 3.0 | 0.00 | 0.00 | 0.00 | 54 | 1016.8 |
| 20260510133934 | 74 | 80 | 0.0 | 1.0 | 0.00 | 0.00 | 0.00 | 56 | 1016.9 |
| 20260510133430 | 74 | 359 | 1.0 | 2.0 | 0.00 | 0.00 | 0.00 | 58 | 1016.6 |
| 20260510132926 | 74 | 60 | 0.0 | 1.0 | 0.00 | 0.00 | 0.00 | 60 | 1016.7 |
| 20260510132424 | 73 | 46 | 0.0 | 1.0 | 0.00 | 0.00 | 0.00 | 62 | 1016.8 |
| 20260510131920 | 73 | 50 | 0.0 | 1.0 | 0.00 | 0.00 | 0.00 | 65 | 1016.7 |
| 20260510131418 | 72 | 52 | 0.0 | 1.0 | 0.00 | 0.00 | 0.00 | 66 | 1016.8 |
| 20260510130914 | 70 | 317 | 0.0 | 1.0 | 0.00 | 0.00 | 0.00 | 71 | 1016.6 |
| 20260510130412 | 70 | 295 | 1.0 | 2.0 | 0.00 | 0.00 | 0.00 | 71 | 1016.6 |
| 20260510125909 | 69 | 306 | 0.0 | 1.0 | 0.00 | 0.00 | 0.00 | 74 | 1016.8 |
| 20260510125404 | 69 | 325 | 2.0 | 2.0 | 0.00 | 0.00 | 0.00 | 76 | 1016.7 |
| 20260510124902 | 69 | 327 | 1.0 | 2.0 | 0.00 | 0.00 | 0.00 | 76 | 1016.5 |
| 20260510124358 | 68 | 0 | 0.0 | 1.0 | 0.00 | 0.00 | 0.00 | 77 | 1016.4 |
| 20260510123854 | 67 | 0 | 0.0 | 1.0 | 0.00 | 0.00 | 0.00 | 80 | 1016.6 |
| 20260510123350 | 67 | 359 | 0.0 | 1.0 | 0.00 | 0.00 | 0.00 | 81 | 1016.4 |
| 20260510122846 | 66 | 322 | 1.0 | 1.0 | 0.00 | 0.00 | 0.00 | 82 | 1016.4 |
| 20260510122342 | 66 | 298 | 1.0 | 2.0 | 0.00 | 0.00 | 0.00 | 83 | 1016.4 |
| 20260510121839 | 65 | 344 | 0.0 | 1.0 | 0.00 | 0.00 | 0.00 | 85 | 1016.1 |
| 20260510121336 | 64 | 319 | 1.0 | 2.0 | 0.00 | 0.00 | 0.00 | 86 | 1016.6 |
| 20260510120833 | 64 | 301 | 1.0 | 2.0 | 0.00 | 0.00 | 0.00 | 87 | 1016.1 |
| 20260510120330 | 63 | 344 | 0.0 | 2.0 | 0.00 | 0.00 | 0.00 | 90 | 1015.9 |
| 20260510115826 | 63 | 344 | 1.0 | 1.0 | 0.00 | 0.00 | 0.00 | 91 | 1015.7 |
| 20260510115323 | 62 | 354 | 1.0 | 2.0 | 0.00 | 0.00 | 0.00 | 95 | 1015.7 |
| 20260510114819 | 61 | 194 | 1.0 | 1.0 | 0.00 | 0.00 | 0.00 | 96 | 1015.6 |
| 20260510114317 | 60 | 193 | 1.0 | 1.0 | 0.00 | 0.00 | 0.00 | 96 | 1015.6 |
| 20260510113811 | 60 | 193 | 0.0 | 0.0 | 0.00 | 0.00 | 0.00 | 96 | 1015.4 |
| 20260510113308 | 60 | 193 | 0.0 | 0.0 | 0.00 | 0.00 | 0.00 | 96 | 1015.5 |
| 20260510112805 | 59 | 193 | 0.0 | 0.0 | 0.00 | 0.00 | 0.00 | 96 | 1015.4 |
| 20260510112305 | 59 | 193 | 0.0 | 0.0 | 0.00 | 0.00 | 0.00 | 96 | 1015.2 |
| 20260510111758 | 59 | 193 | 0.0 | 1.0 | 0.00 | 0.00 | 0.00 | 96 | 1015.4 |
| 20260510111255 | 59 | 193 | 1.0 | 1.0 | 0.00 | 0.00 | 0.00 | 96 | 1015.1 |
| 20260510110754 | 58 | 193 | 0.0 | 0.0 | 0.00 | 0.00 | 0.00 | 96 | 1015.2 |
| 20260510110252 | 59 | 193 | 0.0 | 0.0 | 0.00 | 0.00 | 0.00 | 96 | 1015.2 |
| 20260510105752 | 59 | 193 | 0.0 | 0.0 | 0.00 | 0.00 | 0.00 | 96 | 1015.1 |
| 20260510105247 | 59 | 193 | 0.0 | 0.0 | 0.00 | 0.00 | 0.00 | 96 | 1015.0 |
| 20260510104744 | 59 | 193 | 0.0 | 0.0 | 0.00 | 0.00 | 0.00 | 96 | 1014.9 |
| 20260510104241 | 59 | 193 | 0.0 | 0.0 | 0.00 | 0.00 | 0.00 | 96 | 1014.8 |
| 20260510103737 | 59 | 193 | 0.0 | 1.0 | 0.00 | 0.00 | 0.00 | 96 | 1014.7 |
| 20260510103235 | 59 | 193 | 0.0 | 1.0 | 0.00 | 0.00 | 0.00 | 96 | 1014.6 |
| 20260510102734 | 59 | 193 | 0.0 | 1.0 | 0.00 | 0.00 | 0.00 | 96 | 1014.7 |
| 20260510102230 | 59 | 193 | 0.0 | 0.0 | 0.00 | 0.00 | 0.00 | 96 | 1014.7 |
| 20260510101728 | 58 | 193 | 0.0 | 0.0 | 0.00 | 0.00 | 0.00 | 95 | 1014.8 |
| 20260510101226 | 58 | 193 | 0.0 | 0.0 | 0.00 | 0.00 | 0.00 | 95 | 1014.6 |
| 20260510100722 | 58 | 193 | 0.0 | 0.0 | 0.00 | 0.00 | 0.00 | 95 | 1014.2 |
| 20260510100220 | 58 | 193 | 0.0 | 0.0 | 0.00 | 0.00 | 0.00 | 95 | 1014.4 |
| 20260510095715 | 58 | 193 | 0.0 | 0.0 | 0.00 | 0.00 | 0.00 | 95 | 1014.3 |
| 20260510095211 | 59 | 193 | 0.0 | 0.0 | 0.00 | 0.00 | 0.00 | 95 | 1014.3 |
| 20260510094709 | 59 | 193 | 0.0 | 0.0 | 0.00 | 0.00 | 0.00 | 95 | 1014.5 |
| 20260510094205 | 58 | 193 | 0.0 | 0.0 | 0.00 | 0.00 | 0.00 | 95 | 1014.5 |
| 20260510093701 | 59 | 193 | 0.0 | 0.0 | 0.00 | 0.00 | 0.00 | 95 | 1014.1 |
| 20260510093159 | 59 | 193 | 0.0 | 0.0 | 0.00 | 0.00 | 0.00 | 95 | 1014.1 |
| 20260510092655 | 59 | 193 | 0.0 | 0.0 | 0.00 | 0.00 | 0.00 | 95 | 1014.2 |
| 20260510092150 | 59 | 193 | 0.0 | 0.0 | 0.00 | 0.00 | 0.00 | 95 | 1014.1 |
| 20260510091646 | 59 | 193 | 0.0 | 0.0 | 0.00 | 0.00 | 0.00 | 94 | 1013.8 |
| 20260510091143 | 59 | 193 | 0.0 | 0.0 | 0.00 | 0.00 | 0.00 | 94 | 1013.7 |
| 20260510090640 | 59 | 193 | 0.0 | 0.0 | 0.00 | 0.00 | 0.00 | 94 | 1013.7 |
| 20260510090136 | 59 | 193 | 0.0 | 0.0 | 0.00 | 0.00 | 0.00 | 94 | 1013.6 |
| 20260510085631 | 59 | 193 | 0.0 | 0.0 | 0.00 | 0.00 | 0.00 | 94 | 1013.3 |
| 20260510085126 | 60 | 193 | 0.0 | 0.0 | 0.00 | 0.00 | 0.00 | 94 | 1013.4 |
| 20260510084624 | 60 | 193 | 0.0 | 0.0 | 0.00 | 0.00 | 0.00 | 94 | 1013.5 |
| 20260510084121 | 60 | 193 | 0.0 | 0.0 | 0.00 | 0.00 | 0.00 | 94 | 1013.4 |
| 20260510083617 | 60 | 193 | 0.0 | 0.0 | 0.00 | 0.00 | 0.00 | 94 | 1013.3 |
| 20260510083113 | 60 | 193 | 0.0 | 0.0 | 0.00 | 0.00 | 0.00 | 94 | 1013.4 |
| 20260510082610 | 60 | 193 | 0.0 | 0.0 | 0.00 | 0.00 | 0.00 | 94 | 1013.3 |
| 20260510082105 | 60 | 193 | 0.0 | 0.0 | 0.00 | 0.00 | 0.00 | 94 | 1013.2 |
| 20260510081600 | 60 | 193 | 0.0 | 0.0 | 0.00 | 0.00 | 0.00 | 94 | 1013.2 |
| 20260510081056 | 60 | 193 | 0.0 | 0.0 | 0.00 | 0.00 | 0.00 | 94 | 1013.1 |
| 20260510080555 | 60 | 193 | 0.0 | 0.0 | 0.00 | 0.00 | 0.00 | 93 | 1012.9 |
| 20260510080053 | 60 | 193 | 0.0 | 0.0 | 0.00 | 0.00 | 0.00 | 93 | 1013.2 |
| 20260510075550 | 60 | 193 | 0.0 | 0.0 | 0.00 | 0.00 | 0.00 | 93 | 1013.1 |
| 20260510075047 | 61 | 193 | 0.0 | 0.0 | 0.00 | 0.00 | 0.00 | 93 | 1012.9 |
| 20260510074544 | 61 | 193 | 0.0 | 0.0 | 0.00 | 0.00 | 0.00 | 92 | 1012.9 |
| 20260510074039 | 61 | 193 | 0.0 | 0.0 | 0.00 | 0.00 | 0.00 | 92 | 1013.0 |
| 20260510073536 | 61 | 193 | 0.0 | 0.0 | 0.00 | 0.00 | 0.00 | 92 | 1013.1 |
| 20260510073033 | 61 | 193 | 0.0 | 0.0 | 0.00 | 0.00 | 0.00 | 92 | 1013.1 |
| 20260510072529 | 61 | 193 | 0.0 | 0.0 | 0.00 | 0.00 | 0.00 | 92 | 1013.2 |
| 20260510072025 | 61 | 193 | 0.0 | 0.0 | 0.00 | 0.00 | 0.00 | 91 | 1012.9 |
| 20260510071521 | 62 | 193 | 0.0 | 0.0 | 0.00 | 0.00 | 0.00 | 91 | 1013.0 |
| 20260510071020 | 62 | 193 | 0.0 | 0.0 | 0.00 | 0.00 | 0.00 | 91 | 1012.8 |
| 20260510070516 | 62 | 193 | 0.0 | 0.0 | 0.00 | 0.00 | 0.00 | 90 | 1012.9 |
| 20260510070013 | 62 | 193 | 0.0 | 0.0 | 0.00 | 0.00 | 0.00 | 90 | 1012.9 |
| 20260510065510 | 62 | 193 | 0.0 | 0.0 | 0.00 | 0.00 | 0.00 | 90 | 1012.9 |
| 20260510065005 | 62 | 193 | 0.0 | 0.0 | 0.00 | 0.00 | 0.00 | 90 | 1012.8 |
| 20260510064503 | 63 | 193 | 0.0 | 0.0 | 0.00 | 0.00 | 0.00 | 89 | 1013.0 |
| 20260510063959 | 63 | 193 | 0.0 | 0.0 | 0.00 | 0.00 | 0.00 | 88 | 1012.9 |
| 20260510063455 | 63 | 193 | 0.0 | 0.0 | 0.00 | 0.00 | 0.00 | 88 | 1013.2 |
| 20260510062953 | 63 | 193 | 0.0 | 0.0 | 0.00 | 0.00 | 0.00 | 88 | 1013.1 |
| 20260510062449 | 63 | 193 | 0.0 | 0.0 | 0.00 | 0.00 | 0.00 | 89 | 1013.1 |
| 20260510061944 | 63 | 193 | 0.0 | 1.0 | 0.00 | 0.00 | 0.00 | 89 | 1013.0 |
| 20260510061441 | 62 | 193 | 0.0 | 1.0 | 0.00 | 0.00 | 0.00 | 91 | 1012.8 |
| 20260510060937 | 62 | 193 | 0.0 | 0.0 | 0.00 | 0.00 | 0.00 | 91 | 1013.1 |
| 20260510060434 | 62 | 193 | 0.0 | 0.0 | 0.00 | 0.00 | 0.00 | 90 | 1013.0 |
| 20260510055930 | 62 | 193 | 0.0 | 0.0 | 0.00 | 0.00 | 0.00 | 90 | 1013.0 |
| 20260510055426 | 62 | 193 | 0.0 | 0.0 | 0.00 | 0.00 | 0.00 | 90 | 1013.1 |
| 20260510054924 | 62 | 193 | 0.0 | 0.0 | 0.00 | 0.00 | 0.00 | 90 | 1013.0 |
| 20260510054420 | 62 | 193 | 0.0 | 0.0 | 0.00 | 0.00 | 0.00 | 90 | 1013.1 |
| 20260510053915 | 62 | 193 | 0.0 | 0.0 | 0.00 | 0.00 | 0.00 | 89 | 1013.2 |
| 20260510053411 | 63 | 193 | 0.0 | 0.0 | 0.00 | 0.00 | 0.00 | 89 | 1013.0 |
| 20260510052907 | 63 | 193 | 0.0 | 0.0 | 0.00 | 0.00 | 0.00 | 89 | 1013.3 |
| 20260510052403 | 63 | 193 | 0.0 | 0.0 | 0.00 | 0.00 | 0.00 | 89 | 1013.0 |
| 20260510051859 | 63 | 193 | 0.0 | 0.0 | 0.00 | 0.00 | 0.00 | 88 | 1013.1 |
| 20260510051356 | 63 | 193 | 0.0 | 0.0 | 0.00 | 0.00 | 0.00 | 87 | 1013.1 |
| 20260510050853 | 63 | 193 | 0.0 | 0.0 | 0.00 | 0.00 | 0.00 | 87 | 1013.1 |
| 20260510050350 | 64 | 193 | 0.0 | 1.0 | 0.00 | 0.00 | 0.00 | 86 | 1013.0 |
| 20260510045846 | 64 | 193 | 0.0 | 0.0 | 0.00 | 0.00 | 0.00 | 85 | 1013.0 |
| 20260510045343 | 64 | 193 | 0.0 | 0.0 | 0.00 | 0.00 | 0.00 | 85 | 1013.1 |
| 20260510044840 | 64 | 193 | 0.0 | 0.0 | 0.00 | 0.00 | 0.00 | 85 | 1013.1 |
| 20260510044337 | 64 | 193 | 0.0 | 1.0 | 0.00 | 0.00 | 0.00 | 85 | 1013.3 |
| 20260510043834 | 64 | 193 | 0.0 | 0.0 | 0.00 | 0.00 | 0.00 | 84 | 1013.1 |
| 20260510043330 | 65 | 193 | 0.0 | 0.0 | 0.00 | 0.00 | 0.00 | 84 | 1013.1 |
| 20260510042828 | 65 | 193 | 0.0 | 1.0 | 0.00 | 0.00 | 0.00 | 84 | 1013.2 |
| 20260510042323 | 65 | 193 | 0.0 | 1.0 | 0.00 | 0.00 | 0.00 | 84 | 1013.2 |
| 20260510041820 | 65 | 193 | 0.0 | 1.0 | 0.00 | 0.00 | 0.00 | 84 | 1013.0 |
| 20260510041317 | 65 | 193 | 0.0 | 1.0 | 0.00 | 0.00 | 0.00 | 83 | 1013.3 |
| 20260510040814 | 65 | 193 | 0.0 | 0.0 | 0.00 | 0.00 | 0.00 | 83 | 1013.2 |
| 20260510040311 | 65 | 193 | 0.0 | 1.0 | 0.00 | 0.00 | 0.00 | 83 | 1013.3 |
| 20260510035806 | 65 | 193 | 0.0 | 1.0 | 0.00 | 0.01 | 0.01 | 83 | 1013.4 |
| 20260510035306 | 65 | 193 | 0.0 | 1.0 | 0.00 | 0.01 | 0.01 | 82 | 1013.5 |
| 20260510034758 | 66 | 193 | 0.0 | 0.0 | 0.00 | 0.01 | 0.01 | 82 | 1013.4 |
| 20260510034256 | 66 | 182 | 0.0 | 1.0 | 0.00 | 0.01 | 0.01 | 82 | 1013.3 |
| 20260510033752 | 66 | 182 | 0.0 | 0.0 | 0.00 | 0.01 | 0.01 | 82 | 1013.3 |
| 20260510033250 | 66 | 182 | 0.0 | 1.0 | 0.00 | 0.01 | 0.01 | 82 | 1013.4 |
| 20260510032746 | 66 | 181 | 0.0 | 0.0 | 0.00 | 0.01 | 0.01 | 82 | 1013.4 |
| 20260510032242 | 66 | 181 | 0.0 | 1.0 | 0.00 | 0.01 | 0.01 | 81 | 1013.5 |
| 20260510031738 | 66 | 180 | 0.0 | 0.0 | 0.00 | 0.01 | 0.01 | 81 | 1013.3 |
| 20260510031233 | 66 | 187 | 1.0 | 2.0 | 0.00 | 0.01 | 0.01 | 81 | 1013.3 |
| 20260510030733 | 66 | 179 | 0.0 | 1.0 | 0.00 | 0.01 | 0.01 | 81 | 1013.3 |
| 20260510030231 | 66 | 173 | 0.0 | 0.0 | 0.00 | 0.01 | 0.01 | 81 | 1013.5 |
| 20260510025728 | 66 | 169 | 0.0 | 1.0 | 0.00 | 0.01 | 0.01 | 80 | 1013.3 |
| 20260510025225 | 66 | 169 | 0.0 | 1.0 | 0.00 | 0.01 | 0.01 | 80 | 1013.3 |
| 20260510024722 | 66 | 167 | 0.0 | 1.0 | 0.00 | 0.01 | 0.01 | 80 | 1013.4 |
| 20260510024219 | 66 | 167 | 0.0 | 1.0 | 0.00 | 0.01 | 0.01 | 79 | 1013.3 |
| 20260510023714 | 66 | 1 | 0.0 | 1.0 | 0.00 | 0.01 | 0.01 | 79 | 1013.1 |
| 20260510023212 | 66 | 4 | 0.0 | 0.0 | 0.00 | 0.01 | 0.01 | 79 | 1013.3 |
| 20260510022708 | 66 | 6 | 0.0 | 1.0 | 0.00 | 0.01 | 0.01 | 79 | 1013.2 |
| 20260510022202 | 67 | 8 | 0.0 | 1.0 | 0.00 | 0.01 | 0.01 | 79 | 1013.2 |
| 20260510021658 | 66 | 50 | 0.0 | 1.0 | 0.00 | 0.01 | 0.01 | 79 | 1012.8 |
| 20260510021155 | 66 | 51 | 0.0 | 0.0 | 0.00 | 0.01 | 0.01 | 79 | 1013.2 |
| 20260510020649 | 67 | 51 | 0.0 | 1.0 | 0.00 | 0.01 | 0.01 | 79 | 1012.9 |
| 20260510020145 | 67 | 54 | 0.0 | 0.0 | 0.00 | 0.01 | 0.01 | 78 | 1013.0 |
| 20260510015641 | 66 | 53 | 0.0 | 0.0 | 0.00 | 0.01 | 0.01 | 78 | 1012.8 |
| 20260510015138 | 66 | 54 | 0.0 | 1.0 | 0.00 | 0.01 | 0.01 | 79 | 1013.0 |
| 20260510014638 | 66 | 55 | 0.0 | 0.0 | 0.00 | 0.01 | 0.01 | 79 | 1012.9 |
| 20260510014136 | 66 | 55 | 0.0 | 0.0 | 0.00 | 0.01 | 0.01 | 79 | 1012.5 |
| 20260510013631 | 66 | 55 | 0.0 | 0.0 | 0.00 | 0.01 | 0.01 | 79 | 1012.7 |
| 20260510013126 | 66 | 55 | 0.0 | 0.0 | 0.00 | 0.01 | 0.01 | 78 | 1012.4 |
| 20260510012626 | 66 | 55 | 0.0 | 0.0 | 0.00 | 0.01 | 0.01 | 77 | 1012.4 |
| 20260510012123 | 66 | 55 | 0.0 | 0.0 | 0.00 | 0.01 | 0.01 | 77 | 1012.5 |
| 20260510011622 | 66 | 55 | 0.0 | 1.0 | 0.00 | 0.01 | 0.01 | 78 | 1012.3 |
| 20260510011118 | 66 | 55 | 0.0 | 0.0 | 0.00 | 0.01 | 0.01 | 77 | 1012.4 |
| 20260510010615 | 67 | 55 | 0.0 | 0.0 | 0.00 | 0.01 | 0.01 | 76 | 1012.3 |
| 20260510010113 | 67 | 55 | 0.0 | 0.0 | 0.00 | 0.01 | 0.01 | 75 | 1012.1 |
| 20260510005608 | 67 | 55 | 0.0 | 0.0 | 0.00 | 0.01 | 0.01 | 75 | 1012.2 |
| 20260510005106 | 67 | 55 | 0.0 | 0.0 | 0.00 | 0.01 | 0.01 | 75 | 1012.2 |
| 20260510004603 | 68 | 55 | 0.0 | 0.0 | 0.00 | 0.01 | 0.01 | 74 | 1012.1 |
| 20260510004101 | 68 | 55 | 0.0 | 0.0 | 0.00 | 0.01 | 0.01 | 74 | 1012.1 |
| 20260510003557 | 68 | 55 | 0.0 | 0.0 | 0.00 | 0.01 | 0.01 | 73 | 1011.9 |
| 20260510003053 | 68 | 73 | 0.0 | 1.0 | 0.00 | 0.01 | 0.01 | 72 | 1011.5 |
| 20260510002548 | 68 | 78 | 0.0 | 1.0 | 0.00 | 0.01 | 0.01 | 73 | 1011.5 |
| 20260510002046 | 68 | 79 | 0.0 | 0.0 | 0.00 | 0.01 | 0.01 | 72 | 1011.5 |
| 20260510001543 | 69 | 79 | 0.0 | 0.0 | 0.00 | 0.01 | 0.01 | 71 | 1011.4 |
| 20260510001042 | 69 | 79 | 0.0 | 1.0 | 0.00 | 0.01 | 0.01 | 71 | 1011.3 |
| 20260510000536 | 69 | 34 | 0.0 | 0.0 | 0.00 | 0.01 | 0.01 | 70 | 1011.5 |
| 20260510000033 | 69 | 58 | 0.0 | 1.0 | 0.00 | 0.01 | 0.01 | 70 | 1011.3 |
| 20260509235530 | 70 | 274 | 0.0 | 2.0 | 0.00 | 0.01 | 0.01 | 69 | 1011.2 |
| 20260509235027 | 70 | 198 | 0.0 | 1.0 | 0.00 | 0.01 | 0.01 | 69 | 1011.3 |
| 20260509234523 | 70 | 198 | 0.0 | 1.0 | 0.00 | 0.01 | 0.01 | 68 | 1011.5 |
| 20260509234021 | 70 | 199 | 0.0 | 1.0 | 0.00 | 0.01 | 0.01 | 67 | 1011.4 |
| 20260509233518 | 70 | 228 | 1.0 | 1.0 | 0.00 | 0.01 | 0.01 | 67 | 1011.1 |
| 20260509233015 | 71 | 230 | 1.0 | 1.0 | 0.00 | 0.01 | 0.01 | 66 | 1011.1 |
| 20260509232512 | 71 | 248 | 0.0 | 1.0 | 0.00 | 0.01 | 0.01 | 66 | 1011.2 |
| 20260509232008 | 71 | 146 | 0.0 | 2.0 | 0.00 | 0.01 | 0.01 | 66 | 1011.1 |
| 20260509231505 | 71 | 143 | 1.0 | 1.0 | 0.00 | 0.01 | 0.01 | 66 | 1010.9 |
| 20260509231002 | 71 | 30 | 1.0 | 1.0 | 0.00 | 0.01 | 0.01 | 65 | 1011.0 |
| 20260509230459 | 71 | 187 | 0.0 | 1.0 | 0.00 | 0.01 | 0.01 | 66 | 1011.1 |
| 20260509225955 | 71 | 188 | 1.0 | 2.0 | 0.00 | 0.01 | 0.01 | 66 | 1011.2 |